createdAt,value
2019-05-12T00:00:41.167Z,95.50
2019-05-12T00:03:10.487Z,96.50
2019-05-12T00:05:39.788Z,96.50
2019-05-12T00:08:09.088Z,96.60
2019-05-12T00:10:38.821Z,96.90
2019-05-12T00:13:08.633Z,97.50
2019-05-12T00:15:38.600Z,97.40
2019-05-12T00:18:09.085Z,97.70
2019-05-12T00:20:38.857Z,97.90
2019-05-12T00:23:23.257Z,98.00
2019-05-12T00:25:39.222Z,98.00
2019-05-12T00:28:08.596Z,97.80
2019-05-12T00:30:45.710Z,97.50
2019-05-12T00:33:15.385Z,97.50
2019-05-12T00:35:44.755Z,97.60
2019-05-12T00:38:14.062Z,97.70
2019-05-12T00:40:43.347Z,97.90
2019-05-12T00:43:12.628Z,98.20
2019-05-12T00:45:41.945Z,98.30
2019-05-12T00:48:11.231Z,98.40
2019-05-12T00:50:40.536Z,98.70
2019-05-12T00:53:10.801Z,98.70
2019-05-12T00:55:40.147Z,98.90
2019-05-12T00:58:09.490Z,99.10
2019-05-12T01:00:41.047Z,99.00
2019-05-12T01:03:10.808Z,99.10
2019-05-12T01:05:40.111Z,99.30
2019-05-12T01:08:09.763Z,99.50
2019-05-12T01:10:39.447Z,99.60
2019-05-12T01:13:09.129Z,99.70
2019-05-12T01:15:38.641Z,99.90
2019-05-12T01:18:09.279Z,99.90
2019-05-12T01:20:39.394Z,99.90
2019-05-12T01:23:09.053Z,99.90
2019-05-12T01:25:39.411Z,99.90
2019-05-12T01:28:09.317Z,99.90
2019-05-12T01:30:39.277Z,99.90
2019-05-12T01:33:09.102Z,99.50
2019-05-12T01:35:39.203Z,99.30
2019-05-12T01:38:08.746Z,99.40
2019-05-12T01:40:39.370Z,99.60
2019-05-12T01:43:08.922Z,99.60
2019-05-12T01:45:38.438Z,99.70
2019-05-12T01:48:09.000Z,99.50
2019-05-12T01:50:39.097Z,99.40
2019-05-12T01:53:08.751Z,99.20
2019-05-12T01:55:39.089Z,99.30
2019-05-12T01:58:08.914Z,99.10
2019-05-12T02:00:39.013Z,99.00
2019-05-12T02:03:09.467Z,99.00
2019-05-12T02:05:40.688Z,98.90
2019-05-12T02:08:11.799Z,98.80
2019-05-12T02:10:42.380Z,98.50
2019-05-12T02:13:11.713Z,98.60
2019-05-12T02:15:41.381Z,98.30
2019-05-12T02:18:10.880Z,98.50
2019-05-12T02:20:40.115Z,98.40
2019-05-12T02:23:09.418Z,98.40
2019-05-12T02:25:38.719Z,98.50
2019-05-12T02:28:28.626Z,98.50
2019-05-12T02:30:58.947Z,98.50
2019-05-12T02:33:27.775Z,98.70
2019-05-12T02:35:56.972Z,99.00
2019-05-12T02:38:26.307Z,99.50
2019-05-12T02:40:55.831Z,98.80
2019-05-12T02:43:25.111Z,99.10
2019-05-12T02:45:54.884Z,99.20
2019-05-12T02:48:24.673Z,99.00
2019-05-12T02:50:54.585Z,99.20
2019-05-12T02:53:24.938Z,99.20
2019-05-12T02:55:55.432Z,99.10
2019-05-12T02:58:26.763Z,99.10
2019-05-12T03:00:56.069Z,99.10
2019-05-12T03:03:29.015Z,99.10
2019-05-12T03:06:00.373Z,99.30
2019-05-12T03:08:34.944Z,99.00
2019-05-12T03:11:06.123Z,99.10
2019-05-12T03:13:34.691Z,98.80
2019-05-12T03:16:04.836Z,98.90
2019-05-12T03:18:35.160Z,99.00
2019-05-12T03:21:05.669Z,98.80
2019-05-12T03:23:35.486Z,98.90
2019-05-12T03:26:05.401Z,98.70
2019-05-12T03:28:35.784Z,98.90
2019-05-12T03:31:07.681Z,99.00
2019-05-12T03:33:43.376Z,99.10
2019-05-12T03:36:09.872Z,99.40
2019-05-12T03:38:38.901Z,99.00
2019-05-12T03:41:08.221Z,99.10
2019-05-12T03:43:39.919Z,99.00
2019-05-12T03:46:08.506Z,99.00
2019-05-12T03:48:37.725Z,99.10
2019-05-12T03:51:08.007Z,99.30
2019-05-12T03:53:37.324Z,99.40
2019-05-12T03:56:06.625Z,99.30
2019-05-12T03:58:35.951Z,99.30
2019-05-12T04:01:05.943Z,99.20
2019-05-12T04:03:35.261Z,99.40
2019-05-12T04:06:04.972Z,99.30
2019-05-12T04:08:34.818Z,99.20
2019-05-12T04:11:05.490Z,99.40
2019-05-12T04:13:34.935Z,99.20
2019-05-12T04:16:05.049Z,99.20
2019-05-12T04:18:35.113Z,99.20
2019-05-12T04:21:05.567Z,99.10
2019-05-12T04:23:35.103Z,99.20
2019-05-12T04:26:10.914Z,99.30
2019-05-12T04:28:35.510Z,99.30
2019-05-12T04:31:05.600Z,99.10
2019-05-12T04:33:35.074Z,99.00
2019-05-12T04:36:05.623Z,99.00
2019-05-12T04:38:35.631Z,99.00
2019-05-12T04:41:06.099Z,98.80
2019-05-12T04:43:35.545Z,98.70
2019-05-12T04:46:05.263Z,98.70
2019-05-12T04:48:35.982Z,98.40
2019-05-12T04:51:05.578Z,98.60
2019-05-12T04:53:36.011Z,98.50
2019-05-12T04:56:14.695Z,98.50
2019-05-12T04:58:36.633Z,98.40
2019-05-12T05:01:06.656Z,98.20
2019-05-12T05:03:36.127Z,98.30
2019-05-12T05:06:05.495Z,98.40
2019-05-12T05:08:35.049Z,98.40
2019-05-12T05:11:05.448Z,98.40
2019-05-12T05:13:38.828Z,98.60
2019-05-12T05:16:05.788Z,98.60
2019-05-12T05:18:35.157Z,98.30
2019-05-12T05:21:04.793Z,98.50
2019-05-12T05:23:34.315Z,98.80
2019-05-12T05:26:03.674Z,98.30
2019-05-12T05:28:34.012Z,98.70
2019-05-12T05:31:03.697Z,98.70
2019-05-12T05:33:34.027Z,98.70
2019-05-12T05:36:03.640Z,98.60
2019-05-12T05:38:34.272Z,98.10
2019-05-12T05:41:05.936Z,97.80
2019-05-12T05:43:33.887Z,97.90
2019-05-12T05:46:07.777Z,97.20
2019-05-12T05:48:35.166Z,96.90
2019-05-12T05:51:08.815Z,96.70
2019-05-12T05:53:35.737Z,96.40
2019-05-12T05:56:05.046Z,96.20
2019-05-12T05:58:34.331Z,95.80
2019-05-12T06:01:08.057Z,95.70
2019-05-12T06:03:35.623Z,94.70
2019-05-12T06:06:10.835Z,94.70
2019-05-12T06:08:35.905Z,94.00
2019-05-12T06:11:08.466Z,94.40
2019-05-12T06:13:36.224Z,94.30
2019-05-12T06:16:05.512Z,92.70
2019-05-12T06:18:34.826Z,92.80
2019-05-12T06:21:04.118Z,92.40
2019-05-12T06:23:37.085Z,92.20
2019-05-12T06:26:04.857Z,92.00
2019-05-12T06:28:39.354Z,91.50
2019-05-12T06:31:06.359Z,91.00
2019-05-12T06:33:36.434Z,90.40
2019-05-12T06:36:13.786Z,90.20
2019-05-12T06:38:40.623Z,90.00
2019-05-12T06:41:14.262Z,90.50
2019-05-12T06:43:44.708Z,90.40
2019-05-12T06:46:19.998Z,89.90
2019-05-12T06:48:45.387Z,88.50
2019-05-12T06:51:19.393Z,87.90
2019-05-12T06:53:45.089Z,89.40
2019-05-12T06:56:19.464Z,89.60
2019-05-12T06:58:45.640Z,87.80
2019-05-12T07:01:19.392Z,89.20
2019-05-12T07:03:45.963Z,85.70
2019-05-12T07:06:19.724Z,87.00
2019-05-12T07:08:46.299Z,82.00
2019-05-12T07:11:15.700Z,82.30
2019-05-12T07:13:44.993Z,80.10
2019-05-12T07:16:21.821Z,82.30
2019-05-12T07:18:47.306Z,83.60
2019-05-12T07:21:20.097Z,82.90
2019-05-12T07:23:48.828Z,83.40
2019-05-12T07:26:19.591Z,81.10
2019-05-12T07:28:48.326Z,80.50
2019-05-12T07:31:17.826Z,82.30
2019-05-12T07:33:47.194Z,84.30
2019-05-12T07:36:18.591Z,85.60
2019-05-12T07:38:48.709Z,85.10
2019-05-12T07:41:19.855Z,85.50
2019-05-12T07:43:50.460Z,85.00
2019-05-12T07:46:19.564Z,82.50
2019-05-12T07:48:50.831Z,82.70
2019-05-12T07:51:19.801Z,80.00
2019-05-12T07:53:55.375Z,80.30
2019-05-12T07:56:19.636Z,82.10
2019-05-12T07:58:54.294Z,80.30
2019-05-12T08:01:23.481Z,77.30
2019-05-12T08:03:57.183Z,79.20
2019-05-12T08:06:24.425Z,80.40
2019-05-12T08:08:58.720Z,75.40
2019-05-12T08:11:28.684Z,74.00
2019-05-12T08:13:55.875Z,74.30
2019-05-12T08:16:30.268Z,74.10
2019-05-12T08:18:55.420Z,68.90
2019-05-12T08:21:24.648Z,69.00
2019-05-12T08:23:53.935Z,69.80
2019-05-12T08:26:23.938Z,68.10
2019-05-12T08:28:53.651Z,69.00
2019-05-12T08:31:32.038Z,71.30
2019-05-12T08:33:54.015Z,73.50
2019-05-12T08:36:23.586Z,75.00
2019-05-12T08:38:53.657Z,71.10
2019-05-12T08:41:23.512Z,71.20
2019-05-12T08:43:57.498Z,68.80
2019-05-12T08:46:24.463Z,68.20
2019-05-12T08:48:57.849Z,66.90
2019-05-12T08:51:25.121Z,65.60
2019-05-12T08:54:02.496Z,66.20
2019-05-12T08:56:26.234Z,64.20
2019-05-12T08:58:55.836Z,64.20
2019-05-12T09:01:26.593Z,66.20
2019-05-12T09:04:00.303Z,63.10
2019-05-12T09:06:26.759Z,62.80
2019-05-12T09:08:56.052Z,62.90
2019-05-12T09:11:25.359Z,64.80
2019-05-12T09:14:00.679Z,64.60
2019-05-12T09:16:25.668Z,67.50
2019-05-12T09:18:55.449Z,68.20
2019-05-12T09:21:31.568Z,60.90
2019-05-12T09:23:56.149Z,61.00
2019-05-12T09:26:28.455Z,59.30
2019-05-12T09:28:57.516Z,57.60
2019-05-12T09:31:29.453Z,64.80
2019-05-12T09:33:57.918Z,66.00
2019-05-12T09:36:27.295Z,57.30
2019-05-12T09:39:01.629Z,56.70
2019-05-12T09:41:27.643Z,57.00
2019-05-12T09:43:56.963Z,54.20
2019-05-12T09:46:28.246Z,54.80
2019-05-12T09:48:57.517Z,51.20
2019-05-12T09:51:32.857Z,49.90
2019-05-12T09:53:58.562Z,50.90
2019-05-12T09:56:27.868Z,51.40
2019-05-12T09:59:01.536Z,51.10
2019-05-12T10:01:29.370Z,51.30
2019-05-12T10:03:59.218Z,52.80
2019-05-12T10:06:28.494Z,53.10
2019-05-12T10:08:57.796Z,54.10
2019-05-12T10:11:27.091Z,54.00
2019-05-12T10:14:00.333Z,54.30
2019-05-12T10:16:27.383Z,56.20
2019-05-12T10:18:56.700Z,54.20
2019-05-12T10:21:26.011Z,54.40
2019-05-12T10:24:00.199Z,53.20
2019-05-12T10:26:26.322Z,53.30
2019-05-12T10:28:58.402Z,53.00
2019-05-12T10:31:29.719Z,56.10
2019-05-12T10:33:58.448Z,54.80
2019-05-12T10:36:27.730Z,51.80
2019-05-12T10:38:57.031Z,52.00
2019-05-12T10:41:26.344Z,52.60
2019-05-12T10:43:57.759Z,51.90
2019-05-12T10:46:28.584Z,49.90
2019-05-12T10:48:57.715Z,50.60
2019-05-12T10:51:26.995Z,50.60
2019-05-12T10:54:01.996Z,52.60
2019-05-12T10:56:27.323Z,50.50
2019-05-12T10:58:57.440Z,49.20
2019-05-12T11:01:26.763Z,47.80
2019-05-12T11:03:56.086Z,47.90
2019-05-12T11:06:25.373Z,49.30
2019-05-12T11:08:54.699Z,49.20
2019-05-12T11:11:24.155Z,50.20
2019-05-12T11:13:53.854Z,52.90
2019-05-12T11:16:30.747Z,49.90
2019-05-12T11:19:00.154Z,50.20
2019-05-12T11:21:26.358Z,46.40
2019-05-12T11:23:56.700Z,49.50
2019-05-12T11:26:26.006Z,48.50
2019-05-12T11:28:55.336Z,48.80
2019-05-12T11:31:24.637Z,50.10
2019-05-12T11:33:54.201Z,53.20
2019-05-12T11:36:24.157Z,51.70
2019-05-12T11:38:53.906Z,53.40
2019-05-12T11:41:28.251Z,54.80
2019-05-12T11:43:54.204Z,54.20
2019-05-12T11:46:23.931Z,53.40
2019-05-12T11:48:53.833Z,50.90
2019-05-12T11:51:28.895Z,50.20
2019-05-12T11:53:54.828Z,48.40
2019-05-12T11:56:24.387Z,48.50
2019-05-12T11:58:54.323Z,48.40
2019-05-12T12:01:25.349Z,47.30
2019-05-12T12:03:54.818Z,44.70
2019-05-12T12:06:24.255Z,45.80
2019-05-12T12:08:53.816Z,45.00
2019-05-12T12:11:27.598Z,45.70
2019-05-12T12:13:53.699Z,45.80
2019-05-12T12:16:23.737Z,44.60
2019-05-12T12:19:02.274Z,44.20
2019-05-12T12:21:24.175Z,44.80
2019-05-12T12:23:53.608Z,44.60
2019-05-12T12:26:28.245Z,43.20
2019-05-12T12:28:56.036Z,43.80
2019-05-12T12:31:29.632Z,44.10
2019-05-12T12:33:56.326Z,44.30
2019-05-12T12:36:25.639Z,42.00
2019-05-12T12:38:54.935Z,42.90
2019-05-12T12:41:24.239Z,42.10
2019-05-12T12:43:54.169Z,45.40
2019-05-12T12:46:25.286Z,44.10
2019-05-12T12:48:54.261Z,41.30
2019-05-12T12:51:23.713Z,39.50
2019-05-12T12:53:54.106Z,41.50
2019-05-12T12:56:28.604Z,45.00
2019-05-12T12:58:55.444Z,42.80
2019-05-12T13:01:28.587Z,44.90
2019-05-12T13:03:59.439Z,42.60
2019-05-12T13:06:26.904Z,42.50
2019-05-12T13:08:56.190Z,41.30
2019-05-12T13:11:33.084Z,43.60
2019-05-12T13:13:56.512Z,45.40
2019-05-12T13:16:25.837Z,45.40
2019-05-12T13:18:55.152Z,44.50
2019-05-12T13:21:25.446Z,42.30
2019-05-12T13:23:54.759Z,41.50
2019-05-12T13:26:24.075Z,42.10
2019-05-12T13:28:55.054Z,40.00
2019-05-12T13:31:24.623Z,41.50
2019-05-12T13:33:54.943Z,43.20
2019-05-12T13:36:29.489Z,43.30
2019-05-12T13:38:55.941Z,43.10
2019-05-12T13:41:25.285Z,42.50
2019-05-12T13:43:59.092Z,39.20
2019-05-12T13:46:25.604Z,42.10
2019-05-12T13:48:58.460Z,44.00
2019-05-12T13:51:25.913Z,46.70
2019-05-12T13:53:55.525Z,48.30
2019-05-12T13:56:32.353Z,51.00
2019-05-12T13:58:55.042Z,51.90
2019-05-12T14:01:24.867Z,53.00
2019-05-12T14:03:54.461Z,55.80
2019-05-12T14:06:31.838Z,54.70
2019-05-12T14:08:54.762Z,55.90
2019-05-12T14:11:25.049Z,55.40
2019-05-12T14:13:54.360Z,56.20
2019-05-12T14:16:24.634Z,57.90
2019-05-12T14:18:57.024Z,57.70
2019-05-12T14:21:24.936Z,57.30
2019-05-12T14:23:54.320Z,55.20
2019-05-12T14:26:24.259Z,55.00
2019-05-12T14:28:53.604Z,51.80
2019-05-12T14:31:27.458Z,50.70
2019-05-12T14:33:54.063Z,49.00
2019-05-12T14:36:26.707Z,50.20
2019-05-12T14:38:54.423Z,50.20
2019-05-12T14:41:26.537Z,52.10
2019-05-12T14:44:01.769Z,51.60
2019-05-12T14:46:26.779Z,50.00
2019-05-12T14:48:56.083Z,50.20
2019-05-12T14:51:25.386Z,49.70
2019-05-12T14:53:54.689Z,49.70
2019-05-12T14:56:23.988Z,48.60
2019-05-12T14:58:56.607Z,48.80
2019-05-12T15:01:37.502Z,47.50
2019-05-12T15:03:55.527Z,46.30
2019-05-12T15:06:29.272Z,47.60
2019-05-12T15:08:55.865Z,47.30
2019-05-12T15:11:25.323Z,48.10
2019-05-12T15:13:54.613Z,49.10
2019-05-12T15:16:24.585Z,50.40
2019-05-12T15:18:54.799Z,50.80
2019-05-12T15:21:27.334Z,48.30
2019-05-12T15:23:56.063Z,50.60
2019-05-12T15:26:25.365Z,50.20
2019-05-12T15:28:55.614Z,49.50
2019-05-12T15:31:25.625Z,50.20
2019-05-12T15:33:55.854Z,53.70
2019-05-12T15:36:25.898Z,54.30
2019-05-12T15:38:58.919Z,51.90
2019-05-12T15:41:27.119Z,52.00
2019-05-12T15:43:56.827Z,51.80
2019-05-12T15:46:26.632Z,51.40
2019-05-12T15:48:56.848Z,53.50
2019-05-12T15:51:26.907Z,53.90
2019-05-12T15:54:05.462Z,51.40
2019-05-12T15:56:28.134Z,51.40
2019-05-12T15:59:01.147Z,49.30
2019-05-12T16:01:28.421Z,50.40
2019-05-12T16:03:57.830Z,51.20
2019-05-12T16:06:28.304Z,51.40
2019-05-12T16:08:58.103Z,51.60
2019-05-12T16:11:28.057Z,53.70
2019-05-12T16:13:59.484Z,53.60
2019-05-12T16:16:28.187Z,54.30
2019-05-12T16:18:57.404Z,53.40
2019-05-12T16:21:26.724Z,54.20
2019-05-12T16:23:56.674Z,55.50
2019-05-12T16:26:26.255Z,56.40
2019-05-12T16:29:02.426Z,56.40
2019-05-12T16:31:27.356Z,57.10
2019-05-12T16:34:01.243Z,56.90
2019-05-12T16:36:27.659Z,57.90
2019-05-12T16:39:00.208Z,57.70
2019-05-12T16:41:29.876Z,59.40
2019-05-12T16:44:00.410Z,61.50
2019-05-12T16:46:30.076Z,58.50
2019-05-12T16:49:00.284Z,58.50
2019-05-12T16:51:30.611Z,58.50
2019-05-12T16:54:00.563Z,58.90
2019-05-12T16:56:30.912Z,58.80
2019-05-12T16:59:00.853Z,59.90
2019-05-12T17:01:30.936Z,61.30
2019-05-12T17:04:01.327Z,61.70
2019-05-12T17:06:34.992Z,62.40
2019-05-12T17:09:03.402Z,64.20
2019-05-12T17:11:37.445Z,66.80
2019-05-12T17:14:05.047Z,65.10
2019-05-12T17:16:41.811Z,67.30
2019-05-12T17:19:10.372Z,62.70
2019-05-12T17:21:37.779Z,65.30
2019-05-12T17:24:07.079Z,64.10
2019-05-12T17:26:36.401Z,64.10
2019-05-12T17:29:05.700Z,64.00
2019-05-12T17:31:35.013Z,64.90
2019-05-12T17:34:06.639Z,63.60
2019-05-12T17:36:35.469Z,64.60
2019-05-12T17:39:07.039Z,64.80
2019-05-12T17:41:40.986Z,64.40
2019-05-12T17:44:07.468Z,65.00
2019-05-12T17:46:37.887Z,65.30
2019-05-12T17:49:07.871Z,65.30
2019-05-12T17:51:37.227Z,65.80
2019-05-12T17:54:07.215Z,65.70
2019-05-12T17:56:38.822Z,66.00
2019-05-12T17:59:08.336Z,66.00
2019-05-12T18:01:39.305Z,63.80
2019-05-12T18:04:08.669Z,64.00
2019-05-12T18:06:38.041Z,63.70
2019-05-12T18:09:09.161Z,63.70
2019-05-12T18:11:39.125Z,64.40
2019-05-12T18:14:09.565Z,64.30
2019-05-12T18:16:38.863Z,63.80
2019-05-12T18:19:08.956Z,64.00
2019-05-12T18:21:38.439Z,63.80
2019-05-12T18:24:11.015Z,65.00
2019-05-12T18:26:38.720Z,64.60
2019-05-12T18:29:09.324Z,65.80
2019-05-12T18:31:38.723Z,66.00
2019-05-12T18:34:08.056Z,66.30
2019-05-12T18:36:37.385Z,66.80
2019-05-12T18:39:11.645Z,66.90
2019-05-12T18:41:38.945Z,66.60
2019-05-12T18:44:08.314Z,65.00
2019-05-12T18:46:44.896Z,65.40
2019-05-12T18:49:12.255Z,66.40
2019-05-12T18:51:39.710Z,65.80
2019-05-12T18:54:10.599Z,66.20
2019-05-12T18:56:40.119Z,65.50
2019-05-12T18:59:11.798Z,66.50
2019-05-12T19:01:40.600Z,66.60
2019-05-12T19:04:09.925Z,66.30
2019-05-12T19:06:39.298Z,66.80
2019-05-12T19:09:09.296Z,66.10
2019-05-12T19:11:42.150Z,67.20
2019-05-12T19:14:09.919Z,67.70
2019-05-12T19:16:39.375Z,68.90
2019-05-12T19:19:09.624Z,69.50
2019-05-12T19:21:40.393Z,68.90
2019-05-12T19:24:15.301Z,69.50
2019-05-12T19:26:40.753Z,69.60
2019-05-12T19:29:10.103Z,69.60
2019-05-12T19:31:43.574Z,69.70
2019-05-12T19:34:19.982Z,69.60
2019-05-12T19:36:48.130Z,69.60
2019-05-12T19:39:13.212Z,70.00
2019-05-12T19:41:43.626Z,70.50
2019-05-12T19:44:13.583Z,70.60
2019-05-12T19:46:45.880Z,70.90
2019-05-12T19:49:15.217Z,70.60
2019-05-12T19:51:44.515Z,69.30
2019-05-12T19:54:14.089Z,69.30
2019-05-12T19:56:43.585Z,68.90
2019-05-12T19:59:14.656Z,68.70
2019-05-12T20:01:45.019Z,68.80
2019-05-12T20:04:29.720Z,68.40
2019-05-12T20:06:45.343Z,69.00
2019-05-12T20:09:14.872Z,67.50
2019-05-12T20:11:44.216Z,67.30
2019-05-12T20:14:19.109Z,66.20
2019-05-12T20:16:44.543Z,66.00
2019-05-12T20:19:13.859Z,65.60
2019-05-12T20:21:43.799Z,65.90
2019-05-12T20:24:14.533Z,66.90
2019-05-12T20:26:44.539Z,66.50
2019-05-12T20:29:13.972Z,67.20
2019-05-12T20:31:48.554Z,67.50
2019-05-12T20:34:14.962Z,67.50
2019-05-12T20:36:44.516Z,68.40
2019-05-12T20:39:16.949Z,68.90
2019-05-12T20:41:46.518Z,69.50
2019-05-12T20:44:19.608Z,69.30
2019-05-12T20:46:46.812Z,69.60
2019-05-12T20:49:16.377Z,69.60
2019-05-12T20:51:48.200Z,70.30
2019-05-12T20:54:18.178Z,70.60
2019-05-12T20:56:46.832Z,71.10
2019-05-12T20:59:22.027Z,71.30
2019-05-12T21:01:47.050Z,71.40
2019-05-12T21:04:16.409Z,71.90
2019-05-12T21:06:48.526Z,71.30
2019-05-12T21:09:17.983Z,72.60
2019-05-12T21:11:47.275Z,73.40
2019-05-12T21:14:16.605Z,73.60
2019-05-12T21:16:45.902Z,73.90
2019-05-12T21:19:15.231Z,74.30
2019-05-12T21:21:44.599Z,74.90
2019-05-12T21:24:14.165Z,75.70
2019-05-12T21:26:44.087Z,75.70
2019-05-12T21:29:13.901Z,76.20
2019-05-12T21:31:44.606Z,77.10
2019-05-12T21:34:21.209Z,77.60
2019-05-12T21:36:45.140Z,77.80
2019-05-12T21:39:14.456Z,77.70
2019-05-12T21:41:50.517Z,79.20
2019-05-12T21:44:14.802Z,79.10
2019-05-12T21:46:57.255Z,78.60
2019-05-12T21:49:15.644Z,79.50
2019-05-12T21:51:45.160Z,79.70
2019-05-12T21:54:14.468Z,80.50
2019-05-12T21:56:48.864Z,81.70
2019-05-12T21:59:15.606Z,80.80
2019-05-12T22:01:45.932Z,81.00
2019-05-12T22:04:15.551Z,81.50
2019-05-12T22:06:44.944Z,82.20
2019-05-12T22:09:17.279Z,82.00
2019-05-12T22:11:51.059Z,82.20
2019-05-12T22:14:16.271Z,82.30
2019-05-12T22:16:47.232Z,82.50
2019-05-12T22:19:16.555Z,82.50
2019-05-12T22:21:49.344Z,82.80
2019-05-12T22:24:17.839Z,82.90
2019-05-12T22:26:47.460Z,83.10
2019-05-12T22:29:21.102Z,83.20
2019-05-12T22:31:48.259Z,84.00
2019-05-12T22:34:17.729Z,83.30
2019-05-12T22:36:55.239Z,83.90
2019-05-12T22:39:18.049Z,84.50
2019-05-12T22:41:47.349Z,85.00
2019-05-12T22:44:20.835Z,84.60
2019-05-12T22:46:46.918Z,84.60
2019-05-12T22:49:20.875Z,84.50
2019-05-12T22:51:47.156Z,85.10
2019-05-12T22:54:16.462Z,85.80
2019-05-12T22:56:49.737Z,87.00
2019-05-12T22:59:16.796Z,87.10
2019-05-12T23:01:46.843Z,88.50
2019-05-12T23:04:16.313Z,88.20
2019-05-12T23:06:46.802Z,88.60
2019-05-12T23:09:19.375Z,89.20
2019-05-12T23:11:47.387Z,89.90
2019-05-12T23:14:20.482Z,90.10
2019-05-12T23:16:47.694Z,90.40
2019-05-12T23:19:17.014Z,90.00
2019-05-12T23:21:49.466Z,90.00
2019-05-12T23:24:17.335Z,89.90
2019-05-12T23:26:47.983Z,89.00
2019-05-12T23:29:20.369Z,88.80
2019-05-12T23:31:48.638Z,89.30
2019-05-12T23:34:17.940Z,89.40
2019-05-12T23:36:50.444Z,90.00
2019-05-12T23:39:18.315Z,90.00
2019-05-12T23:41:47.645Z,90.30
2019-05-12T23:44:16.947Z,90.30
2019-05-12T23:46:46.263Z,90.30
2019-05-12T23:49:15.578Z,90.20
2019-05-12T23:51:44.878Z,90.50
2019-05-12T23:54:14.497Z,90.40
2019-05-12T23:56:44.521Z,90.50
2019-05-12T23:59:14.052Z,90.70
